sensor_id;sensor_type;location;lat;lon;timestamp;pressure;altitude;pressure_sealevel;temperature;humidity
79645;BME280;69117;47.148;18.954;2024-02-23T00:01:39;99146.53;;;10.01;100.00
79645;BME280;69117;47.148;18.954;2024-02-23T00:04:41;99146.03;;;10.06;100.00
79645;BME280;69117;47.148;18.954;2024-02-23T00:07:43;99145.81;;;10.16;100.00
79645;BME280;69117;47.148;18.954;2024-02-23T00:10:45;99148.94;;;10.19;100.00
79645;BME280;69117;47.148;18.954;2024-02-23T00:13:47;99147.88;;;9.97;100.00
79645;BME280;69117;47.148;18.954;2024-02-23T00:16:49;99154.97;;;9.89;100.00
79645;BME280;69117;47.148;18.954;2024-02-23T00:19:51;99162.28;;;9.70;100.00
79645;BME280;69117;47.148;18.954;2024-02-23T00:22:54;99163.47;;;9.59;100.00
79645;BME280;69117;47.148;18.954;2024-02-23T00:25:56;99162.81;;;9.57;100.00
79645;BME280;69117;47.148;18.954;2024-02-23T00:28:57;99170.38;;;9.60;100.00
79645;BME280;69117;47.148;18.954;2024-02-23T00:31:59;99171.72;;;9.56;100.00
79645;BME280;69117;47.148;18.954;2024-02-23T00:35:01;99162.53;;;9.36;100.00
79645;BME280;69117;47.148;18.954;2024-02-23T00:38:02;99167.28;;;9.24;100.00
79645;BME280;69117;47.148;18.954;2024-02-23T00:41:04;99164.97;;;9.13;100.00
79645;BME280;69117;47.148;18.954;2024-02-23T00:44:06;99159.53;;;8.98;100.00
79645;BME280;69117;47.148;18.954;2024-02-23T00:47:09;99159.19;;;8.77;100.00
79645;BME280;69117;47.148;18.954;2024-02-23T00:50:11;99146.50;;;8.64;100.00
79645;BME280;69117;47.148;18.954;2024-02-23T00:53:13;99144.84;;;8.55;100.00
79645;BME280;69117;47.148;18.954;2024-02-23T00:56:15;99146.50;;;8.47;100.00
79645;BME280;69117;47.148;18.954;2024-02-23T00:59:16;99141.88;;;8.49;100.00
79645;BME280;69117;47.148;18.954;2024-02-23T01:02:18;99130.78;;;8.38;100.00
79645;BME280;69117;47.148;18.954;2024-02-23T01:05:20;99134.63;;;8.43;100.00
79645;BME280;69117;47.148;18.954;2024-02-23T01:08:21;99137.75;;;8.39;100.00
79645;BME280;69117;47.148;18.954;2024-02-23T01:11:23;99136.59;;;8.49;100.00
79645;BME280;69117;47.148;18.954;2024-02-23T01:14:25;99131.19;;;8.51;100.00
79645;BME280;69117;47.148;18.954;2024-02-23T01:17:27;99136.16;;;8.62;100.00
79645;BME280;69117;47.148;18.954;2024-02-23T01:20:28;99138.16;;;8.68;100.00
79645;BME280;69117;47.148;18.954;2024-02-23T01:23:30;99134.00;;;8.74;100.00
79645;BME280;69117;47.148;18.954;2024-02-23T01:26:32;99130.75;;;8.72;100.00
79645;BME280;69117;47.148;18.954;2024-02-23T01:29:34;99122.34;;;8.77;100.00
79645;BME280;69117;47.148;18.954;2024-02-23T01:32:35;99122.81;;;8.80;100.00
79645;BME280;69117;47.148;18.954;2024-02-23T01:35:40;99105.38;;;8.95;100.00
79645;BME280;69117;47.148;18.954;2024-02-23T01:38:41;99104.91;;;9.08;100.00
79645;BME280;69117;47.148;18.954;2024-02-23T01:41:44;99100.44;;;9.01;100.00
79645;BME280;69117;47.148;18.954;2024-02-23T01:44:46;99098.63;;;9.01;100.00
79645;BME280;69117;47.148;18.954;2024-02-23T01:47:47;99097.81;;;9.01;100.00
79645;BME280;69117;47.148;18.954;2024-02-23T01:50:49;99090.91;;;9.08;100.00
79645;BME280;69117;47.148;18.954;2024-02-23T01:53:51;99097.63;;;9.18;100.00
79645;BME280;69117;47.148;18.954;2024-02-23T01:56:53;99089.41;;;9.13;100.00
79645;BME280;69117;47.148;18.954;2024-02-23T01:59:57;99092.88;;;9.14;100.00
79645;BME280;69117;47.148;18.954;2024-02-23T02:02:58;99090.88;;;9.16;100.00
79645;BME280;69117;47.148;18.954;2024-02-23T02:06:00;99079.03;;;9.04;100.00
79645;BME280;69117;47.148;18.954;2024-02-23T02:09:02;99079.72;;;9.14;100.00
79645;BME280;69117;47.148;18.954;2024-02-23T02:12:04;99075.25;;;9.14;100.00
79645;BME280;69117;47.148;18.954;2024-02-23T02:15:06;99079.00;;;9.28;100.00
79645;BME280;69117;47.148;18.954;2024-02-23T02:18:08;99067.31;;;9.31;100.00
79645;BME280;69117;47.148;18.954;2024-02-23T02:21:09;99081.09;;;9.49;100.00
79645;BME280;69117;47.148;18.954;2024-02-23T02:24:11;99081.56;;;9.53;100.00
79645;BME280;69117;47.148;18.954;2024-02-23T02:27:15;99088.19;;;9.57;100.00
79645;BME280;69117;47.148;18.954;2024-02-23T02:30:17;99069.53;;;9.58;100.00
79645;BME280;69117;47.148;18.954;2024-02-23T02:33:19;99075.94;;;9.64;100.00
79645;BME280;69117;47.148;18.954;2024-02-23T02:36:21;99079.06;;;9.68;100.00
79645;BME280;69117;47.148;18.954;2024-02-23T02:39:23;99064.91;;;9.69;100.00
79645;BME280;69117;47.148;18.954;2024-02-23T02:42:24;99066.19;;;9.73;100.00
79645;BME280;69117;47.148;18.954;2024-02-23T02:45:26;99070.31;;;9.75;100.00
79645;BME280;69117;47.148;18.954;2024-02-23T02:48:28;99069.50;;;9.75;100.00
79645;BME280;69117;47.148;18.954;2024-02-23T02:51:29;99082.97;;;9.80;100.00
79645;BME280;69117;47.148;18.954;2024-02-23T02:54:31;99080.00;;;9.83;100.00
79645;BME280;69117;47.148;18.954;2024-02-23T02:57:33;99078.16;;;9.92;100.00
79645;BME280;69117;47.148;18.954;2024-02-23T03:00:35;99064.03;;;10.07;100.00
79645;BME280;69117;47.148;18.954;2024-02-23T03:03:36;99087.06;;;10.22;100.00
79645;BME280;69117;47.148;18.954;2024-02-23T03:06:38;99080.63;;;10.32;100.00
79645;BME280;69117;47.148;18.954;2024-02-23T03:09:40;99099.59;;;10.59;100.00
79645;BME280;69117;47.148;18.954;2024-02-23T03:12:42;99066.69;;;10.62;100.00
79645;BME280;69117;47.148;18.954;2024-02-23T03:15:44;99080.88;;;10.69;100.00
79645;BME280;69117;47.148;18.954;2024-02-23T03:18:46;99098.69;;;10.67;100.00
79645;BME280;69117;47.148;18.954;2024-02-23T03:21:48;99099.00;;;10.72;100.00
79645;BME280;69117;47.148;18.954;2024-02-23T03:24:49;99084.84;;;10.65;100.00
79645;BME280;69117;47.148;18.954;2024-02-23T03:27:51;99074.63;;;10.62;100.00
79645;BME280;69117;47.148;18.954;2024-02-23T03:30:53;99081.91;;;10.60;100.00
79645;BME280;69117;47.148;18.954;2024-02-23T03:33:54;99088.47;;;10.64;100.00
79645;BME280;69117;47.148;18.954;2024-02-23T03:36:56;99088.47;;;10.64;100.00
79645;BME280;69117;47.148;18.954;2024-02-23T03:39:59;99082.63;;;10.53;100.00
79645;BME280;69117;47.148;18.954;2024-02-23T03:43:03;99092.19;;;10.54;100.00
79645;BME280;69117;47.148;18.954;2024-02-23T03:46:06;99076.47;;;10.38;100.00
79645;BME280;69117;47.148;18.954;2024-02-23T03:49:08;99085.00;;;10.40;100.00
79645;BME280;69117;47.148;18.954;2024-02-23T03:52:10;99100.22;;;10.38;100.00
79645;BME280;69117;47.148;18.954;2024-02-23T03:55:11;99080.06;;;10.37;100.00
79645;BME280;69117;47.148;18.954;2024-02-23T03:58:13;99091.34;;;10.31;100.00
79645;BME280;69117;47.148;18.954;2024-02-23T04:01:14;99096.81;;;10.29;100.00
79645;BME280;69117;47.148;18.954;2024-02-23T04:04:17;99099.59;;;10.28;100.00
79645;BME280;69117;47.148;18.954;2024-02-23T04:07:19;99095.44;;;10.25;100.00
79645;BME280;69117;47.148;18.954;2024-02-23T04:10:21;99100.25;;;10.30;100.00
79645;BME280;69117;47.148;18.954;2024-02-23T04:13:22;99110.28;;;10.35;100.00
79645;BME280;69117;47.148;18.954;2024-02-23T04:16:24;99092.53;;;10.20;100.00
79645;BME280;69117;47.148;18.954;2024-02-23T04:19:26;99105.88;;;10.27;100.00
79645;BME280;69117;47.148;18.954;2024-02-23T04:22:28;99100.09;;;10.23;100.00
79645;BME280;69117;47.148;18.954;2024-02-23T04:25:29;99100.25;;;10.22;100.00
79645;BME280;69117;47.148;18.954;2024-02-23T04:28:31;99105.25;;;10.17;100.00
79645;BME280;69117;47.148;18.954;2024-02-23T04:31:37;99109.47;;;10.34;100.00
79645;BME280;69117;47.148;18.954;2024-02-23T04:34:39;99103.56;;;10.32;100.00
79645;BME280;69117;47.148;18.954;2024-02-23T04:37:45;99107.00;;;10.32;100.00
79645;BME280;69117;47.148;18.954;2024-02-23T04:40:46;99119.31;;;10.40;100.00
79645;BME280;69117;47.148;18.954;2024-02-23T04:43:48;99101.25;;;10.29;100.00
79645;BME280;69117;47.148;18.954;2024-02-23T04:46:50;99118.69;;;10.38;100.00
79645;BME280;69117;47.148;18.954;2024-02-23T04:49:52;99119.19;;;10.34;100.00
79645;BME280;69117;47.148;18.954;2024-02-23T04:52:54;99124.34;;;10.19;100.00
79645;BME280;69117;47.148;18.954;2024-02-23T04:55:55;99111.88;;;10.04;100.00
79645;BME280;69117;47.148;18.954;2024-02-23T04:58:57;99120.66;;;10.05;100.00
79645;BME280;69117;47.148;18.954;2024-02-23T05:01:59;99120.31;;;10.00;100.00
79645;BME280;69117;47.148;18.954;2024-02-23T05:05:02;99116.91;;;9.91;100.00
79645;BME280;69117;47.148;18.954;2024-02-23T05:08:06;99117.56;;;9.85;100.00
79645;BME280;69117;47.148;18.954;2024-02-23T05:11:07;99122.88;;;9.77;100.00
79645;BME280;69117;47.148;18.954;2024-02-23T05:14:09;99114.69;;;9.63;100.00
79645;BME280;69117;47.148;18.954;2024-02-23T05:17:11;99124.09;;;9.58;100.00
79645;BME280;69117;47.148;18.954;2024-02-23T05:20:13;99124.59;;;9.53;100.00
79645;BME280;69117;47.148;18.954;2024-02-23T05:23:15;99125.75;;;9.51;100.00
79645;BME280;69117;47.148;18.954;2024-02-23T05:26:18;99143.06;;;9.53;100.00
79645;BME280;69117;47.148;18.954;2024-02-23T05:29:19;99156.06;;;9.47;100.00
79645;BME280;69117;47.148;18.954;2024-02-23T05:32:24;99155.56;;;9.43;100.00
79645;BME280;69117;47.148;18.954;2024-02-23T05:35:25;99160.84;;;9.43;100.00
79645;BME280;69117;47.148;18.954;2024-02-23T05:38:30;99162.84;;;9.33;100.00
79645;BME280;69117;47.148;18.954;2024-02-23T05:41:33;99155.59;;;9.27;100.00
79645;BME280;69117;47.148;18.954;2024-02-23T05:44:35;99172.72;;;9.31;100.00
79645;BME280;69117;47.148;18.954;2024-02-23T05:47:40;99170.59;;;9.18;100.00
79645;BME280;69117;47.148;18.954;2024-02-23T05:50:47;99173.06;;;9.28;100.00
79645;BME280;69117;47.148;18.954;2024-02-23T05:53:49;99173.03;;;9.20;100.00
79645;BME280;69117;47.148;18.954;2024-02-23T05:56:51;99191.69;;;9.26;100.00
79645;BME280;69117;47.148;18.954;2024-02-23T05:59:53;99194.31;;;9.18;100.00
79645;BME280;69117;47.148;18.954;2024-02-23T06:02:55;99199.56;;;9.18;100.00
79645;BME280;69117;47.148;18.954;2024-02-23T06:05:56;99192.47;;;9.10;100.00
79645;BME280;69117;47.148;18.954;2024-02-23T06:08:58;99200.06;;;9.13;100.00
79645;BME280;69117;47.148;18.954;2024-02-23T06:12:01;99201.38;;;9.17;100.00
79645;BME280;69117;47.148;18.954;2024-02-23T06:15:03;99200.56;;;9.17;100.00
79645;BME280;69117;47.148;18.954;2024-02-23T06:18:05;99203.69;;;9.21;100.00
79645;BME280;69117;47.148;18.954;2024-02-23T06:21:14;99206.66;;;9.26;100.00
79645;BME280;69117;47.148;18.954;2024-02-23T06:24:16;99219.69;;;9.35;100.00
79645;BME280;69117;47.148;18.954;2024-02-23T06:27:18;99219.84;;;9.34;100.00
79645;BME280;69117;47.148;18.954;2024-02-23T06:30:19;99225.63;;;9.29;100.00
79645;BME280;69117;47.148;18.954;2024-02-23T06:33:22;99223.47;;;9.33;100.00
79645;BME280;69117;47.148;18.954;2024-02-23T06:36:23;99214.56;;;9.34;100.00
79645;BME280;69117;47.148;18.954;2024-02-23T06:39:25;99221.81;;;9.40;100.00
79645;BME280;69117;47.148;18.954;2024-02-23T06:42:27;99231.38;;;9.41;100.00
79645;BME280;69117;47.148;18.954;2024-02-23T06:45:29;99234.97;;;9.40;100.00
79645;BME280;69117;47.148;18.954;2024-02-23T06:48:30;99225.59;;;9.37;100.00
79645;BME280;69117;47.148;18.954;2024-02-23T06:51:33;99238.13;;;9.35;100.00
79645;BME280;69117;47.148;18.954;2024-02-23T06:54:35;99245.88;;;9.45;100.00
79645;BME280;69117;47.148;18.954;2024-02-23T06:57:37;99235.97;;;9.31;100.00
79645;BME280;69117;47.148;18.954;2024-02-23T07:00:39;99240.09;;;9.33;100.00
79645;BME280;69117;47.148;18.954;2024-02-23T07:03:41;99234.81;;;9.33;100.00
79645;BME280;69117;47.148;18.954;2024-02-23T07:06:45;99246.19;;;9.42;100.00
79645;BME280;69117;47.148;18.954;2024-02-23T07:09:46;99243.22;;;9.29;100.00
79645;BME280;69117;47.148;18.954;2024-02-23T07:12:48;99251.13;;;9.29;100.00
79645;BME280;69117;47.148;18.954;2024-02-23T07:15:50;99244.69;;;9.31;100.00
79645;BME280;69117;47.148;18.954;2024-02-23T07:18:51;99247.53;;;9.38;100.00
79645;BME280;69117;47.148;18.954;2024-02-23T07:21:53;99247.19;;;9.41;100.00
79645;BME280;69117;47.148;18.954;2024-02-23T07:24:55;99251.81;;;9.39;100.00
79645;BME280;69117;47.148;18.954;2024-02-23T07:27:56;99257.41;;;9.52;100.00
79645;BME280;69117;47.148;18.954;2024-02-23T07:30:58;99242.56;;;9.51;100.00
79645;BME280;69117;47.148;18.954;2024-02-23T07:33:59;99243.56;;;9.58;100.00
79645;BME280;69117;47.148;18.954;2024-02-23T07:37:02;99258.22;;;9.77;100.00
79645;BME280;69117;47.148;18.954;2024-02-23T07:40:04;99263.13;;;9.89;100.00
79645;BME280;69117;47.148;18.954;2024-02-23T07:43:06;99276.16;;;9.98;100.00
79645;BME280;69117;47.148;18.954;2024-02-23T07:46:08;99282.56;;;10.04;100.00
79645;BME280;69117;47.148;18.954;2024-02-23T07:49:10;99282.22;;;10.07;100.00
79645;BME280;69117;47.148;18.954;2024-02-23T07:52:12;99282.41;;;10.05;100.00
79645;BME280;69117;47.148;18.954;2024-02-23T07:55:14;99271.53;;;10.00;100.00
79645;BME280;69117;47.148;18.954;2024-02-23T07:58:17;99274.50;;;10.05;100.00
79645;BME280;69117;47.148;18.954;2024-02-23T08:01:20;99261.66;;;10.02;100.00
79645;BME280;69117;47.148;18.954;2024-02-23T08:04:22;99273.66;;;10.13;100.00
79645;BME280;69117;47.148;18.954;2024-02-23T08:07:23;99277.28;;;10.20;100.00
79645;BME280;69117;47.148;18.954;2024-02-23T08:10:27;99292.59;;;10.25;100.00
79645;BME280;69117;47.148;18.954;2024-02-23T08:13:28;99280.41;;;10.24;100.00
79645;BME280;69117;47.148;18.954;2024-02-23T08:16:30;99288.34;;;10.32;100.00
79645;BME280;69117;47.148;18.954;2024-02-23T08:19:32;99274.13;;;10.33;100.00
79645;BME280;69117;47.148;18.954;2024-02-23T08:22:33;99279.88;;;10.37;100.00
79645;BME280;69117;47.148;18.954;2024-02-23T08:25:36;99288.63;;;10.45;100.00
79645;BME280;69117;47.148;18.954;2024-02-23T08:28:38;99287.94;;;10.51;100.00
79645;BME280;69117;47.148;18.954;2024-02-23T08:31:39;99287.78;;;10.53;100.00
79645;BME280;69117;47.148;18.954;2024-02-23T08:34:43;99295.97;;;10.66;100.00
79645;BME280;69117;47.148;18.954;2024-02-23T08:37:44;99300.44;;;10.66;100.00
79645;BME280;69117;47.148;18.954;2024-02-23T08:40:46;99306.34;;;10.68;100.00
79645;BME280;69117;47.148;18.954;2024-02-23T08:43:48;99307.31;;;10.75;100.00
79645;BME280;69117;47.148;18.954;2024-02-23T08:46:51;99297.31;;;10.62;100.00
79645;BME280;69117;47.148;18.954;2024-02-23T08:49:53;99299.91;;;10.70;100.00
79645;BME280;69117;47.148;18.954;2024-02-23T08:52:55;99294.13;;;10.75;100.00
79645;BME280;69117;47.148;18.954;2024-02-23T08:55:56;99308.28;;;10.82;100.00
79645;BME280;69117;47.148;18.954;2024-02-23T08:58:59;99310.22;;;10.88;100.00
79645;BME280;69117;47.148;18.954;2024-02-23T09:02:00;99314.53;;;10.89;100.00
79645;BME280;69117;47.148;18.954;2024-02-23T09:05:02;99316.31;;;10.97;100.00
79645;BME280;69117;47.148;18.954;2024-02-23T09:08:05;99310.34;;;10.95;100.00
79645;BME280;69117;47.148;18.954;2024-02-23T09:11:07;99331.31;;;11.05;100.00
79645;BME280;69117;47.148;18.954;2024-02-23T09:14:08;99328.13;;;11.09;100.00
79645;BME280;69117;47.148;18.954;2024-02-23T09:17:10;99321.22;;;11.08;100.00
79645;BME280;69117;47.148;18.954;2024-02-23T09:20:12;99333.72;;;11.14;100.00
79645;BME280;69117;47.148;18.954;2024-02-23T09:23:14;99328.44;;;11.14;100.00
79645;BME280;69117;47.148;18.954;2024-02-23T09:26:16;99329.72;;;11.18;100.00
79645;BME280;69117;47.148;18.954;2024-02-23T09:29:19;99322.47;;;11.20;100.00
79645;BME280;69117;47.148;18.954;2024-02-23T09:32:21;99323.25;;;11.29;100.00
79645;BME280;69117;47.148;18.954;2024-02-23T09:35:23;99330.97;;;11.31;100.00
79645;BME280;69117;47.148;18.954;2024-02-23T09:38:25;99332.00;;;11.30;100.00
79645;BME280;69117;47.148;18.954;2024-02-23T09:41:26;99342.72;;;11.28;100.00
79645;BME280;69117;47.148;18.954;2024-02-23T09:44:33;99335.66;;;11.29;100.00
79645;BME280;69117;47.148;18.954;2024-02-23T09:47:35;99327.13;;;11.41;100.00
79645;BME280;69117;47.148;18.954;2024-02-23T09:50:40;99322.69;;;11.34;100.00
79645;BME280;69117;47.148;18.954;2024-02-23T09:53:42;99339.81;;;11.46;100.00
79645;BME280;69117;47.148;18.954;2024-02-23T09:56:44;99330.13;;;11.38;100.00
79645;BME280;69117;47.148;18.954;2024-02-23T09:59:48;99342.47;;;11.46;100.00
79645;BME280;69117;47.148;18.954;2024-02-23T10:02:50;99344.75;;;11.49;100.00
79645;BME280;69117;47.148;18.954;2024-02-23T10:05:53;99342.41;;;11.54;100.00
79645;BME280;69117;47.148;18.954;2024-02-23T10:08:55;99347.31;;;11.65;100.00
79645;BME280;69117;47.148;18.954;2024-02-23T10:11:57;99345.63;;;11.64;100.00
79645;BME280;69117;47.148;18.954;2024-02-23T10:14:59;99330.97;;;11.62;100.00
79645;BME280;69117;47.148;18.954;2024-02-23T10:18:01;99331.47;;;11.57;100.00
79645;BME280;69117;47.148;18.954;2024-02-23T10:21:02;99335.72;;;11.66;100.00
79645;BME280;69117;47.148;18.954;2024-02-23T10:24:07;99339.00;;;11.68;100.00
79645;BME280;69117;47.148;18.954;2024-02-23T10:27:09;99344.59;;;11.74;100.00
79645;BME280;69117;47.148;18.954;2024-02-23T10:30:13;99349.72;;;11.75;100.00
79645;BME280;69117;47.148;18.954;2024-02-23T10:33:19;99355.34;;;11.72;100.00
79645;BME280;69117;47.148;18.954;2024-02-23T10:36:24;99355.25;;;11.65;100.00
79645;BME280;69117;47.148;18.954;2024-02-23T10:39:30;99349.13;;;11.65;100.00
79645;BME280;69117;47.148;18.954;2024-02-23T10:42:34;99337.47;;;11.51;100.00
79645;BME280;69117;47.148;18.954;2024-02-23T10:45:37;99345.88;;;11.55;100.00
79645;BME280;69117;47.148;18.954;2024-02-23T10:48:44;99343.22;;;11.55;100.00
79645;BME280;69117;47.148;18.954;2024-02-23T10:51:47;99341.63;;;11.45;100.00
79645;BME280;69117;47.148;18.954;2024-02-23T10:54:50;99339.13;;;11.52;100.00
79645;BME280;69117;47.148;18.954;2024-02-23T10:57:55;99345.56;;;11.50;100.00
79645;BME280;69117;47.148;18.954;2024-02-23T11:01:01;99340.81;;;11.45;100.00
79645;BME280;69117;47.148;18.954;2024-02-23T11:04:07;99346.78;;;11.47;100.00
79645;BME280;69117;47.148;18.954;2024-02-23T11:07:13;99352.25;;;11.37;100.00
79645;BME280;69117;47.148;18.954;2024-02-23T11:10:16;99325.69;;;11.31;100.00
79645;BME280;69117;47.148;18.954;2024-02-23T11:13:17;99340.97;;;11.43;100.00
79645;BME280;69117;47.148;18.954;2024-02-23T11:16:23;99341.69;;;11.37;100.00
79645;BME280;69117;47.148;18.954;2024-02-23T11:19:35;99327.28;;;11.40;100.00
79645;BME280;69117;47.148;18.954;2024-02-23T11:22:38;99325.00;;;11.37;100.00
79645;BME280;69117;47.148;18.954;2024-02-23T11:25:40;99327.00;;;11.35;100.00
79645;BME280;69117;47.148;18.954;2024-02-23T11:28:52;99332.69;;;11.46;100.00
79645;BME280;69117;47.148;18.954;2024-02-23T11:31:57;99335.19;;;11.48;100.00
79645;BME280;69117;47.148;18.954;2024-02-23T11:35:03;99327.13;;;11.41;100.00
79645;BME280;69117;47.148;18.954;2024-02-23T11:38:05;99338.13;;;11.53;100.00
79645;BME280;69117;47.148;18.954;2024-02-23T11:41:08;99328.88;;;11.49;100.00
79645;BME280;69117;47.148;18.954;2024-02-23T11:44:10;99331.03;;;11.54;100.00
79645;BME280;69117;47.148;18.954;2024-02-23T11:47:15;99321.75;;;11.50;100.00
79645;BME280;69117;47.148;18.954;2024-02-23T11:50:18;99321.25;;;11.54;100.00
79645;BME280;69117;47.148;18.954;2024-02-23T11:53:22;99327.00;;;11.58;100.00
79645;BME280;69117;47.148;18.954;2024-02-23T11:56:26;99322.72;;;11.57;100.00
79645;BME280;69117;47.148;18.954;2024-02-23T11:59:28;99320.19;;;11.63;100.00
79645;BME280;69117;47.148;18.954;2024-02-23T12:02:29;99319.53;;;11.61;100.00
79645;BME280;69117;47.148;18.954;2024-02-23T12:05:31;99310.84;;;11.53;100.00
79645;BME280;69117;47.148;18.954;2024-02-23T12:08:33;99313.78;;;11.58;100.00
79645;BME280;69117;47.148;18.954;2024-02-23T12:11:41;99313.72;;;11.66;100.00
79645;BME280;69117;47.148;18.954;2024-02-23T12:14:44;99313.72;;;11.66;100.00
79645;BME280;69117;47.148;18.954;2024-02-23T12:17:49;99309.44;;;11.65;100.00
79645;BME280;69117;47.148;18.954;2024-02-23T12:20:52;99303.41;;;11.56;100.00
79645;BME280;69117;47.148;18.954;2024-02-23T12:23:54;99308.59;;;11.64;100.00
79645;BME280;69117;47.148;18.954;2024-02-23T12:26:56;99293.34;;;11.52;100.00
79645;BME280;69117;47.148;18.954;2024-02-23T12:29:58;99306.84;;;11.57;100.00
79645;BME280;69117;47.148;18.954;2024-02-23T12:33:06;99292.81;;;11.56;100.00
79645;BME280;69117;47.148;18.954;2024-02-23T12:36:13;99305.44;;;11.69;100.00
79645;BME280;69117;47.148;18.954;2024-02-23T12:39:14;99299.91;;;11.56;100.00
79645;BME280;69117;47.148;18.954;2024-02-23T12:42:17;99298.25;;;11.55;100.00
79645;BME280;69117;47.148;18.954;2024-02-23T12:45:19;99304.03;;;11.35;100.00
79645;BME280;69117;47.148;18.954;2024-02-23T12:48:21;99289.72;;;11.21;100.00
79645;BME280;69117;47.148;18.954;2024-02-23T12:51:25;99301.38;;;11.35;100.00
79645;BME280;69117;47.148;18.954;2024-02-23T12:54:28;99300.22;;;11.38;100.00
79645;BME280;69117;47.148;18.954;2024-02-23T12:57:29;99292.09;;;11.39;100.00
79645;BME280;69117;47.148;18.954;2024-02-23T13:00:31;99286.81;;;11.39;100.00
79645;BME280;69117;47.148;18.954;2024-02-23T13:03:34;99292.91;;;11.40;100.00
79645;BME280;69117;47.148;18.954;2024-02-23T13:06:39;99290.38;;;11.46;100.00
79645;BME280;69117;47.148;18.954;2024-02-23T13:09:41;99298.31;;;11.46;100.00
79645;BME280;69117;47.148;18.954;2024-02-23T13:12:43;99302.91;;;11.53;100.00
79645;BME280;69117;47.148;18.954;2024-02-23T13:15:46;99301.84;;;11.39;100.00
79645;BME280;69117;47.148;18.954;2024-02-23T13:18:48;99306.25;;;11.23;100.00
79645;BME280;69117;47.148;18.954;2024-02-23T13:21:50;99301.97;;;11.22;100.00
79645;BME280;69117;47.148;18.954;2024-02-23T13:24:51;99302.44;;;11.26;100.00
79645;BME280;69117;47.148;18.954;2024-02-23T13:27:53;99288.56;;;11.24;100.00
79645;BME280;69117;47.148;18.954;2024-02-23T13:30:55;99306.22;;;11.32;100.00
79645;BME280;69117;47.148;18.954;2024-02-23T13:33:58;99309.38;;;11.27;100.00
79645;BME280;69117;47.148;18.954;2024-02-23T13:37:00;99300.16;;;11.23;100.00
79645;BME280;69117;47.148;18.954;2024-02-23T13:40:02;99296.69;;;11.22;100.00
79645;BME280;69117;47.148;18.954;2024-02-23T13:43:05;99293.00;;;11.32;100.00
79645;BME280;69117;47.148;18.954;2024-02-23T13:46:06;99285.22;;;11.30;100.00
79645;BME280;69117;47.148;18.954;2024-02-23T13:49:08;99285.34;;;11.37;100.00
79645;BME280;69117;47.148;18.954;2024-02-23T13:52:11;99281.56;;;11.31;100.00
79645;BME280;69117;47.148;18.954;2024-02-23T13:55:13;99285.88;;;11.32;100.00
79645;BME280;69117;47.148;18.954;2024-02-23T13:58:15;99273.47;;;11.33;100.00
79645;BME280;69117;47.148;18.954;2024-02-23T14:01:18;99280.94;;;11.29;100.00
79645;BME280;69117;47.148;18.954;2024-02-23T14:04:20;99278.09;;;11.31;100.00
79645;BME280;69117;47.148;18.954;2024-02-23T14:07:22;99280.25;;;11.35;100.00
79645;BME280;69117;47.148;18.954;2024-02-23T14:10:24;99267.41;;;11.24;100.00
79645;BME280;69117;47.148;18.954;2024-02-23T14:13:26;99272.53;;;11.26;100.00
79645;BME280;69117;47.148;18.954;2024-02-23T14:16:28;99282.47;;;11.23;100.00
79645;BME280;69117;47.148;18.954;2024-02-23T14:19:30;99264.97;;;11.22;100.00
79645;BME280;69117;47.148;18.954;2024-02-23T14:22:32;99266.56;;;11.32;100.00
79645;BME280;69117;47.148;18.954;2024-02-23T14:25:33;99262.09;;;11.32;100.00
79645;BME280;69117;47.148;18.954;2024-02-23T14:28:35;99270.00;;;11.32;100.00
79645;BME280;69117;47.148;18.954;2024-02-23T14:31:36;99262.53;;;11.36;100.00
79645;BME280;69117;47.148;18.954;2024-02-23T14:34:38;99260.97;;;11.27;100.00
79645;BME280;69117;47.148;18.954;2024-02-23T14:37:40;99259.94;;;11.28;100.00
79645;BME280;69117;47.148;18.954;2024-02-23T14:40:42;99257.16;;;11.29;100.00
79645;BME280;69117;47.148;18.954;2024-02-23T14:43:44;99254.16;;;11.32;100.00
79645;BME280;69117;47.148;18.954;2024-02-23T14:46:45;99236.00;;;11.29;100.00
79645;BME280;69117;47.148;18.954;2024-02-23T14:49:47;99233.81;;;11.33;100.00
79645;BME280;69117;47.148;18.954;2024-02-23T14:52:49;99252.97;;;11.35;100.00
79645;BME280;69117;47.148;18.954;2024-02-23T14:55:51;99235.66;;;11.32;100.00
79645;BME280;69117;47.148;18.954;2024-02-23T14:58:54;99235.44;;;11.34;100.00
79645;BME280;69117;47.148;18.954;2024-02-23T15:01:55;99227.88;;;11.31;100.00
79645;BME280;69117;47.148;18.954;2024-02-23T15:04:57;99241.09;;;11.31;100.00
79645;BME280;69117;47.148;18.954;2024-02-23T15:07:59;99242.63;;;11.25;100.00
79645;BME280;69117;47.148;18.954;2024-02-23T15:11:01;99237.91;;;11.12;100.00
79645;BME280;69117;47.148;18.954;2024-02-23T15:14:02;99243.03;;;11.14;100.00
79645;BME280;69117;47.148;18.954;2024-02-23T15:17:04;99240.41;;;11.14;100.00
79645;BME280;69117;47.148;18.954;2024-02-23T15:20:06;99238.72;;;11.13;100.00
79645;BME280;69117;47.148;18.954;2024-02-23T15:23:10;99226.56;;;11.04;100.00
79645;BME280;69117;47.148;18.954;2024-02-23T15:26:12;99236.31;;;11.03;100.00
79645;BME280;69117;47.148;18.954;2024-02-23T15:29:14;99235.66;;;11.01;100.00
79645;BME280;69117;47.148;18.954;2024-02-23T15:32:16;99228.94;;;10.98;100.00
79645;BME280;69117;47.148;18.954;2024-02-23T15:35:18;99222.53;;;10.93;100.00
79645;BME280;69117;47.148;18.954;2024-02-23T15:38:20;99226.22;;;11.07;100.00
79645;BME280;69117;47.148;18.954;2024-02-23T15:41:22;99230.34;;;11.09;100.00
79645;BME280;69117;47.148;18.954;2024-02-23T15:44:24;99224.25;;;11.09;100.00